MOL Continuity — 3ESS2 — position and weather

sailwx.info

Track history (hours):
 
Tides and Currents Weather Stations Pressure Air Temp Water Temp Dewpoint Dewpoint Depression Visibility Wind Speed Wind Dir Waves Ship Positions

MOL Continuity

Last reported at 2017-Dec-11 01:29 UTC. Time now 2017-Dec-13 20:50 UTC.
Position N 22°20' E 114°08'.

Length 320 m; draft 13.5 m.

Type: Ship (hazmat cat A). MMSI: 370407000.

Date/timePositionNaut miles runAvg speedWind from/ knotsBaromVisibWave heightAir tempDewpointWater temp
2017-Dec-11 01:29N 22°20' E 114°08'  
2017-Dec-02 13:43N 01°15' E 104°05'311.9
2017-Dec-02 13:30N 01°15' E 104°02'611.2
2017-Dec-02 13:01N 01°14' E 103°57'4 7.7
2017-Dec-02 12:31N 01°14' E 103°53'3 5.0
2017-Dec-02 12:00N 01°16' E 103°51'0 0.6
2017-Dec-02 11:31N 01°16' E 103°51'0 0.0
2017-Dec-02 10:59N 01°16' E 103°51'0 0.0
2017-Dec-02 10:26N 01°16' E 103°51'0 0.1
2017-Dec-02 09:56N 01°16' E 103°51'0 0.1
2017-Dec-02 09:26N 01°16' E 103°51'0 0.0
2017-Dec-02 08:56N 01°16' E 103°51'0 0.0
2017-Dec-02 08:26N 01°16' E 103°51'0 0.1
2017-Dec-02 07:59N 01°16' E 103°51'0 0.0
2017-Dec-02 07:26N 01°16' E 103°51'0 0.0
2017-Dec-02 06:59N 01°16' E 103°51'0 0.0
2017-Dec-02 06:26N 01°16' E 103°51'0 0.0
2017-Dec-02 05:56N 01°16' E 103°51'0 0.0
2017-Dec-02 05:26N 01°16' E 103°51'0 0.0
2017-Dec-02 04:59N 01°16' E 103°51'0 0.0
2017-Dec-02 04:26N 01°16' E 103°51'0 0.0
2017-Dec-02 03:56N 01°16' E 103°51'0 0.0
2017-Dec-02 03:26N 01°16' E 103°51'0 0.0
2017-Dec-02 02:56N 01°16' E 103°51'0 0.0
2017-Dec-02 02:26N 01°16' E 103°51'0 0.0
2017-Dec-02 01:56N 01°16' E 103°51'0 0.0
2017-Dec-02 01:26N 01°16' E 103°51'0 0.0
2017-Dec-02 00:56N 01°16' E 103°51'0 0.0
2017-Dec-02 00:29N 01°16' E 103°51'0 0.0
2017-Dec-01 23:56N 01°16' E 103°51'0 0.0
2017-Dec-01 23:26N 01°16' E 103°51'0 0.0
2017-Dec-01 22:56N 01°16' E 103°51'0 0.1
2017-Dec-01 22:26N 01°16' E 103°51'0 0.0
2017-Dec-01 21:56N 01°16' E 103°51'0 0.1
2017-Dec-01 21:26N 01°16' E 103°51'0 0.0
2017-Dec-01 20:56N 01°16' E 103°51'0 0.0
2017-Dec-01 20:26N 01°16' E 103°51'0 0.0
2017-Dec-01 19:56N 01°16' E 103°51'0 0.0
2017-Dec-01 19:29N 01°16' E 103°51'0 0.0
2017-Dec-01 18:56N 01°16' E 103°51'0 0.0
2017-Dec-01 18:26N 01°16' E 103°51'0 0.0
2017-Dec-01 17:56N 01°16' E 103°51'0 0.0
2017-Dec-01 17:26N 01°16' E 103°51'0 0.0
2017-Dec-01 16:56N 01°16' E 103°51'0 0.0
2017-Dec-01 16:26N 01°16' E 103°51'0 0.0
2017-Dec-01 15:56N 01°16' E 103°51'0 0.1
2017-Dec-01 15:29N 01°16' E 103°51'0 0.1
2017-Dec-01 14:56N 01°16' E 103°51'0 0.0
2017-Dec-01 14:26N 01°16' E 103°51'0 0.0
2017-Dec-01 13:53N 01°16' E 103°51'0 0.0
2017-Dec-01 13:26N 01°16' E 103°51'0 0.0
2017-Dec-01 12:56N 01°16' E 103°51'0 0.0
2017-Dec-01 12:26N 01°16' E 103°51'0 0.0
2017-Dec-01 12:01N 01°16' E 103°51'0 0.2
2017-Dec-01 11:30N 01°16' E 103°51'2 4.5
2017-Dec-01 11:01N 01°14' E 103°52'0 0.8
2017-Dec-01 10:30N 01°14' E 103°53'0 0.6
2017-Dec-01 09:55N 01°15' E 103°53'0 0.0
2017-Dec-01 09:28N 01°15' E 103°53'0 0.0
2017-Dec-01 08:58N 01°15' E 103°53'0 0.0
2017-Dec-01 08:28N 01°15' E 103°53'0 0.0
2017-Dec-01 07:58N 01°15' E 103°53'0 0.0
2017-Dec-01 07:28N 01°15' E 103°53'0 0.5
2017-Dec-01 07:00N 01°14' E 103°53'2 3.8
2017-Dec-01 06:30N 01°14' E 103°55'3 5.6
2017-Dec-01 06:00N 01°15' E 103°57'5 9.6
2017-Dec-01 05:30N 01°16' E 104°02'510.9
2017-Dec-01 05:00N 01°17' E 104°08'  
Track history (hours):
 
Tides and Currents Weather Stations Pressure Air Temp Water Temp Dewpoint Dewpoint Depression Visibility Wind Speed Wind Dir Waves Ship Positions

MOL Continuity

Last reported at 2017-Dec-11 01:29 UTC. Time now 2017-Dec-13 20:50 UTC.
Position N 22°20' E 114°08'.

Length 320 m; draft 13.5 m.

Type: Ship (hazmat cat A). MMSI: 370407000.

Date/timePositionNaut miles runAvg speedWind from/ knotsBaromVisibWave heightAir tempDewpointWater temp
2017-Dec-11 01:29N 22°20' E 114°08'  
2017-Dec-02 13:43N 01°15' E 104°05'311.9
2017-Dec-02 13:30N 01°15' E 104°02'611.2
2017-Dec-02 13:01N 01°14' E 103°57'4 7.7
2017-Dec-02 12:31N 01°14' E 103°53'3 5.0
2017-Dec-02 12:00N 01°16' E 103°51'0 0.6
2017-Dec-02 11:31N 01°16' E 103°51'0 0.0
2017-Dec-02 10:59N 01°16' E 103°51'0 0.0
2017-Dec-02 10:26N 01°16' E 103°51'0 0.1
2017-Dec-02 09:56N 01°16' E 103°51'0 0.1
2017-Dec-02 09:26N 01°16' E 103°51'0 0.0
2017-Dec-02 08:56N 01°16' E 103°51'0 0.0
2017-Dec-02 08:26N 01°16' E 103°51'0 0.1
2017-Dec-02 07:59N 01°16' E 103°51'0 0.0
2017-Dec-02 07:26N 01°16' E 103°51'0 0.0
2017-Dec-02 06:59N 01°16' E 103°51'0 0.0
2017-Dec-02 06:26N 01°16' E 103°51'0 0.0
2017-Dec-02 05:56N 01°16' E 103°51'0 0.0
2017-Dec-02 05:26N 01°16' E 103°51'0 0.0
2017-Dec-02 04:59N 01°16' E 103°51'0 0.0
2017-Dec-02 04:26N 01°16' E 103°51'0 0.0
2017-Dec-02 03:56N 01°16' E 103°51'0 0.0
2017-Dec-02 03:26N 01°16' E 103°51'0 0.0
2017-Dec-02 02:56N 01°16' E 103°51'0 0.0
2017-Dec-02 02:26N 01°16' E 103°51'0 0.0
2017-Dec-02 01:56N 01°16' E 103°51'0 0.0
2017-Dec-02 01:26N 01°16' E 103°51'0 0.0
2017-Dec-02 00:56N 01°16' E 103°51'0 0.0
2017-Dec-02 00:29N 01°16' E 103°51'0 0.0
2017-Dec-01 23:56N 01°16' E 103°51'0 0.0
2017-Dec-01 23:26N 01°16' E 103°51'0 0.0
2017-Dec-01 22:56N 01°16' E 103°51'0 0.1
2017-Dec-01 22:26N 01°16' E 103°51'0 0.0
2017-Dec-01 21:56N 01°16' E 103°51'0 0.1
2017-Dec-01 21:26N 01°16' E 103°51'0 0.0
2017-Dec-01 20:56N 01°16' E 103°51'0 0.0
2017-Dec-01 20:26N 01°16' E 103°51'0 0.0
2017-Dec-01 19:56N 01°16' E 103°51'0 0.0
2017-Dec-01 19:29N 01°16' E 103°51'0 0.0
2017-Dec-01 18:56N 01°16' E 103°51'0 0.0
2017-Dec-01 18:26N 01°16' E 103°51'0 0.0
2017-Dec-01 17:56N 01°16' E 103°51'0 0.0
2017-Dec-01 17:26N 01°16' E 103°51'0 0.0
2017-Dec-01 16:56N 01°16' E 103°51'0 0.0
2017-Dec-01 16:26N 01°16' E 103°51'0 0.0
2017-Dec-01 15:56N 01°16' E 103°51'0 0.1
2017-Dec-01 15:29N 01°16' E 103°51'0 0.1
2017-Dec-01 14:56N 01°16' E 103°51'0 0.0
2017-Dec-01 14:26N 01°16' E 103°51'0 0.0
2017-Dec-01 13:53N 01°16' E 103°51'0 0.0
2017-Dec-01 13:26N 01°16' E 103°51'0 0.0
2017-Dec-01 12:56N 01°16' E 103°51'0 0.0
2017-Dec-01 12:26N 01°16' E 103°51'0 0.0
2017-Dec-01 12:01N 01°16' E 103°51'0 0.2
2017-Dec-01 11:30N 01°16' E 103°51'2 4.5
2017-Dec-01 11:01N 01°14' E 103°52'0 0.8
2017-Dec-01 10:30N 01°14' E 103°53'0 0.6
2017-Dec-01 09:55N 01°15' E 103°53'0 0.0
2017-Dec-01 09:28N 01°15' E 103°53'0 0.0
2017-Dec-01 08:58N 01°15' E 103°53'0 0.0
2017-Dec-01 08:28N 01°15' E 103°53'0 0.0
2017-Dec-01 07:58N 01°15' E 103°53'0 0.0
2017-Dec-01 07:28N 01°15' E 103°53'0 0.5
2017-Dec-01 07:00N 01°14' E 103°53'2 3.8
2017-Dec-01 06:30N 01°14' E 103°55'3 5.6
2017-Dec-01 06:00N 01°15' E 103°57'5 9.6
2017-Dec-01 05:30N 01°16' E 104°02'510.9
2017-Dec-01 05:00N 01°17' E 104°08'  

Dump ship's entire track history